Time;durP1;ratioP1;P1;durP2;ratioP2;P2;SDS_P1;SDS_P2;PMS_P1;PMS_P2;Temp;Humidity;BMP_temperature;BMP_pressure;BME280_temperature;BME280_humidity;BME280_pressure;Samples;Min_cycle;Max_cycle;Signal;HPM_P1;HPM_P2
2022/04/10 00:01:14;;;;;;;8.85;2.97;;;4.10;99.90;;;;;;5112714;28;20173;-53
2022/04/10 00:03:39;;;;;;;10.07;4.53;;;4.10;99.90;;;;;;5112707;28;20165;-54
2022/04/10 00:06:04;;;;;;;5.63;3.03;;;4.00;99.90;;;;;;5112108;28;20169;-53
2022/04/10 00:08:30;;;;;;;5.32;2.22;;;4.00;99.90;;;;;;5112507;28;20633;-56
2022/04/10 00:10:56;;;;;;;8.70;2.80;;;3.90;99.90;;;;;;5112242;28;20268;-54
2022/04/10 00:13:21;;;;;;;6.30;3.03;;;3.90;99.90;;;;;;5112620;28;20180;-55
2022/04/10 00:15:47;;;;;;;7.15;2.88;;;3.90;99.90;;;;;;5112617;28;20640;-54
2022/04/10 00:18:12;;;;;;;7.50;2.67;;;3.90;99.90;;;;;;5112549;28;20172;-52
2022/04/10 00:20:38;;;;;;;6.63;2.88;;;3.90;99.90;;;;;;5112609;28;20672;-56
2022/04/10 00:23:04;;;;;;;5.85;2.85;;;3.90;99.90;;;;;;5112259;28;20175;-55
2022/04/10 00:25:29;;;;;;;7.07;2.75;;;3.90;99.90;;;;;;5112298;28;20161;-55
2022/04/10 00:27:55;;;;;;;5.68;2.83;;;3.90;99.90;;;;;;5112311;28;20164;-56
2022/04/10 00:30:20;;;;;;;4.72;2.70;;;3.80;99.90;;;;;;5112244;28;20169;-55
2022/04/10 00:32:46;;;;;;;9.77;2.45;;;3.80;99.90;;;;;;5112248;28;20621;-55
2022/04/10 00:35:12;;;;;;;5.75;2.90;;;3.80;99.90;;;;;;5112200;28;20516;-56
2022/04/10 00:37:39;;;;;;;4.70;2.40;;;3.80;99.90;;;;;;5112564;28;20180;-55
2022/04/10 00:40:06;;;;;;;7.18;2.55;;;3.80;99.90;;;;;;5112162;28;20660;-56
2022/04/10 00:42:36;;;;;;;5.38;3.10;;;3.80;99.90;;;;;;5114884;28;20168;-54
2022/04/10 00:45:04;;;;;;;8.73;3.00;;;3.80;99.90;;;;;;5116156;28;20172;-56
2022/04/10 00:47:29;;;;;;;7.80;2.80;;;3.80;99.90;;;;;;5116159;28;20628;-55
2022/04/10 00:49:58;;;;;;;6.55;2.90;;;3.70;99.90;;;;;;5116015;28;20239;-54
2022/04/10 00:52:25;;;;;;;4.65;2.42;;;3.70;99.90;;;;;;5116300;28;20184;-54
2022/04/10 00:54:51;;;;;;;7.95;2.70;;;3.60;99.90;;;;;;5116143;28;20168;-54
2022/04/10 00:57:18;;;;;;;20.50;6.65;;;3.60;99.90;;;;;;5115870;28;20176;-54
2022/04/10 00:59:44;;;;;;;8.80;4.93;;;3.50;99.90;;;;;;5115764;28;20200;-54
2022/04/10 01:02:09;;;;;;;7.75;3.35;;;3.50;99.90;;;;;;5116111;28;20609;-55
2022/04/10 01:04:36;;;;;;;9.90;3.13;;;3.50;99.90;;;;;;5115757;28;20176;-51
2022/04/10 01:07:03;;;;;;;8.40;3.25;;;3.50;99.90;;;;;;5115908;27;20173;-51
2022/04/10 01:09:31;;;;;;;9.52;3.15;;;3.50;99.90;;;;;;5115453;28;20220;-54
2022/04/10 01:11:57;;;;;;;6.00;3.13;;;3.50;99.90;;;;;;5115941;28;20175;-52
2022/04/10 01:14:23;;;;;;;8.05;3.67;;;3.50;99.90;;;;;;5115487;28;20504;-56
2022/04/10 01:16:49;;;;;;;6.07;4.05;;;3.50;99.90;;;;;;5115529;28;20181;-53
2022/04/10 01:19:16;;;;;;;5.78;3.58;;;3.50;99.90;;;;;;5115446;28;20196;-53
2022/04/10 01:21:44;;;;;;;5.88;3.35;;;3.50;99.90;;;;;;5115415;27;20173;-51
2022/04/10 01:24:11;;;;;;;8.82;3.17;;;3.50;99.90;;;;;;5115885;28;20211;-51
2022/04/10 01:26:37;;;;;;;9.57;3.47;;;3.40;99.90;;;;;;5115761;27;20165;-51
2022/04/10 01:29:04;;;;;;;5.15;3.08;;;3.50;99.90;;;;;;5115357;27;20171;-50
2022/04/10 01:31:32;;;;;;;7.60;3.40;;;3.40;99.90;;;;;;5115254;28;20180;-55
2022/04/10 01:34:00;;;;;;;5.93;3.72;;;3.40;99.90;;;;;;5115235;27;20289;-55
2022/04/10 01:36:28;;;;;;;9.85;2.88;;;3.50;99.90;;;;;;5115211;28;20160;-55
2022/04/10 01:38:55;;;;;;;7.78;3.60;;;3.40;99.90;;;;;;5115285;28;20169;-55
2022/04/10 01:41:22;;;;;;;7.60;3.30;;;3.50;99.90;;;;;;5115340;28;20260;-54
2022/04/10 01:43:49;;;;;;;6.43;3.67;;;3.50;99.90;;;;;;5115369;28;20161;-58
2022/04/10 01:46:15;;;;;;;5.63;3.25;;;3.50;99.90;;;;;;5115186;28;20172;-54
2022/04/10 01:48:41;;;;;;;8.85;3.40;;;3.50;99.90;;;;;;5115300;28;20629;-50
2022/04/10 01:51:08;;;;;;;6.95;3.10;;;3.40;99.90;;;;;;5113947;28;20572;-55
2022/04/10 01:53:35;;;;;;;6.20;3.40;;;3.40;99.90;;;;;;5114533;28;20168;-52
2022/04/10 01:56:04;;;;;;;7.13;3.55;;;3.40;99.90;;;;;;5113498;28;20168;-55
2022/04/10 01:58:31;;;;;;;8.60;3.28;;;3.30;99.90;;;;;;5114752;28;20175;-54
2022/04/10 02:00:57;;;;;;;11.13;4.60;;;3.20;99.90;;;;;;5114756;28;20204;-55
2022/04/10 02:03:22;;;;;;;8.13;4.57;;;3.30;99.90;;;;;;5114624;28;20217;-55
2022/04/10 02:05:48;;;;;;;8.93;4.95;;;3.20;99.90;;;;;;5114812;28;20218;-55
2022/04/10 02:08:13;;;;;;;5.40;3.25;;;3.20;99.90;;;;;;5114495;28;20652;-55
2022/04/10 02:10:40;;;;;;;6.63;3.25;;;3.20;99.90;;;;;;5114643;28;20216;-55
2022/04/10 02:13:07;;;;;;;7.93;3.17;;;3.20;99.90;;;;;;5114816;27;20173;-55
2022/04/10 02:15:38;;;;;;;12.32;3.20;;;3.20;99.90;;;;;;5114600;28;20248;-55
2022/04/10 02:18:04;;;;;;;9.60;4.30;;;3.20;99.90;;;;;;5114348;28;20645;-55
2022/04/10 02:20:30;;;;;;;8.52;3.20;;;3.20;99.90;;;;;;5114103;28;20290;-55
2022/04/10 02:22:55;;;;;;;6.72;3.10;;;3.30;99.90;;;;;;5114274;28;20542;-55
2022/04/10 02:25:21;;;;;;;6.13;3.20;;;3.30;99.90;;;;;;5114196;28;20225;-55
2022/04/10 02:27:46;;;;;;;5.85;2.78;;;3.30;99.90;;;;;;5114093;28;20222;-55
2022/04/10 02:30:12;;;;;;;7.60;3.17;;;3.30;99.90;;;;;;5113993;28;20250;-54
2022/04/10 02:32:39;;;;;;;11.25;3.65;;;3.30;99.90;;;;;;5114621;28;20649;-55
2022/04/10 02:35:05;;;;;;;8.50;3.40;;;3.30;99.90;;;;;;5114336;28;20172;-55
2022/04/10 02:37:31;;;;;;;5.32;2.83;;;3.30;99.90;;;;;;5114209;28;20168;-53
2022/04/10 02:39:56;;;;;;;9.48;3.42;;;3.30;99.90;;;;;;5113817;28;20699;-55
2022/04/10 02:42:22;;;;;;;7.55;3.47;;;3.30;99.90;;;;;;5113918;28;20683;-54
2022/04/10 02:44:47;;;;;;;5.20;2.67;;;3.30;99.90;;;;;;5113740;28;20169;-55
2022/04/10 02:47:13;;;;;;;5.85;3.20;;;3.30;99.90;;;;;;5113763;28;20247;-54
2022/04/10 02:49:38;;;;;;;4.10;2.92;;;3.30;99.90;;;;;;5114263;28;20551;-50
2022/04/10 02:52:04;;;;;;;7.00;3.80;;;3.30;99.90;;;;;;5113799;28;20247;-50
2022/04/10 02:54:30;;;;;;;8.50;3.83;;;3.30;99.90;;;;;;5113651;28;20165;-52
2022/04/10 02:56:56;;;;;;;8.40;3.55;;;3.30;99.90;;;;;;5113585;28;20161;-54
2022/04/10 02:59:21;;;;;;;6.05;2.95;;;3.30;99.90;;;;;;5113383;28;20557;-54
2022/04/10 03:01:50;;;;;;;5.30;3.50;;;3.40;99.90;;;;;;5113520;28;20719;-52
2022/04/10 03:04:16;;;;;;;8.57;3.60;;;3.40;99.90;;;;;;5112978;28;20176;-52
2022/04/10 03:06:41;;;;;;;10.18;3.50;;;3.40;99.90;;;;;;5113342;28;20257;-56
2022/04/10 03:09:07;;;;;;;8.27;3.47;;;3.50;99.90;;;;;;5113442;28;20204;-49
2022/04/10 03:11:33;;;;;;;6.85;3.22;;;3.40;99.90;;;;;;5113264;28;20257;-50
2022/04/10 03:13:58;;;;;;;7.10;3.55;;;3.40;99.90;;;;;;5113465;28;20631;-54
2022/04/10 03:16:24;;;;;;;8.05;3.17;;;3.40;99.90;;;;;;5113264;28;20192;-55
2022/04/10 03:18:51;;;;;;;6.43;3.35;;;3.50;99.90;;;;;;5113015;28;20652;-54
2022/04/10 03:21:17;;;;;;;7.78;3.22;;;3.50;99.90;;;;;;5113416;28;20176;-51
2022/04/10 03:23:43;;;;;;;6.65;3.67;;;3.50;99.90;;;;;;5113291;28;20257;-55
2022/04/10 03:26:09;;;;;;;4.38;3.03;;;3.60;99.90;;;;;;5113372;28;20248;-51
2022/04/10 03:28:34;;;;;;;8.40;4.43;;;3.60;99.90;;;;;;5113038;28;20222;-54
2022/04/10 03:31:00;;;;;;;6.80;3.53;;;3.60;99.90;;;;;;5112960;28;21283;-54
2022/04/10 03:33:25;;;;;;;8.68;4.03;;;3.60;99.90;;;;;;5112933;28;20240;-49
2022/04/10 03:35:53;;;;;;;7.43;3.53;;;3.70;99.90;;;;;;5112899;28;20171;-54
2022/04/10 03:38:18;;;;;;;10.82;4.03;;;3.80;99.90;;;;;;5112912;28;20565;-52
2022/04/10 03:40:44;;;;;;;7.35;3.30;;;3.80;99.90;;;;;;5112732;28;20203;-55
2022/04/10 03:43:11;;;;;;;8.38;3.60;;;3.80;99.90;;;;;;5113161;28;20172;-55
2022/04/10 03:45:37;;;;;;;6.75;4.07;;;3.90;99.90;;;;;;5113276;28;20204;-56
2022/04/10 03:48:03;;;;;;;9.10;3.83;;;3.80;99.90;;;;;;5112998;28;20198;-56
2022/04/10 03:50:29;;;;;;;13.85;4.10;;;3.80;99.90;;;;;;5112591;28;20212;-53
2022/04/10 03:52:54;;;;;;;6.38;4.00;;;3.80;99.90;;;;;;5111329;28;20222;-55
2022/04/10 03:55:20;;;;;;;11.98;4.57;;;3.90;99.90;;;;;;5112771;28;20222;-55
2022/04/10 03:57:46;;;;;;;9.48;3.90;;;3.90;99.90;;;;;;5112585;28;20196;-56
2022/04/10 04:00:12;;;;;;;7.40;3.72;;;3.90;99.90;;;;;;5112697;28;20212;-55
2022/04/10 04:02:42;;;;;;;11.65;4.03;;;3.90;99.90;;;;;;5113059;28;20175;-55
2022/04/10 04:05:08;;;;;;;8.07;3.83;;;3.80;99.90;;;;;;5113027;28;20176;-50
2022/04/10 04:07:33;;;;;;;7.43;3.80;;;3.70;99.90;;;;;;5112775;28;20164;-51
2022/04/10 04:09:59;;;;;;;5.10;3.42;;;3.80;99.90;;;;;;5112308;28;20228;-52
2022/04/10 04:12:24;;;;;;;7.25;4.47;;;3.70;99.90;;;;;;5112414;28;20206;-54
2022/04/10 04:14:50;;;;;;;9.35;3.72;;;3.60;99.90;;;;;;5112414;28;20629;-56
2022/04/10 04:17:15;;;;;;;5.40;3.50;;;3.60;99.90;;;;;;5116292;28;20173;-55
2022/04/10 04:19:41;;;;;;;6.63;3.65;;;3.60;99.90;;;;;;5116725;28;20204;-51
2022/04/10 04:22:06;;;;;;;13.63;4.68;;;3.60;99.90;;;;;;5116795;28;20175;-56
2022/04/10 04:24:33;;;;;;;5.85;4.20;;;3.60;99.90;;;;;;5116543;28;20677;-54
2022/04/10 04:26:58;;;;;;;7.35;3.88;;;3.60;99.90;;;;;;5116408;28;20172;-56
2022/04/10 04:29:24;;;;;;;11.43;4.93;;;3.60;99.90;;;;;;5116490;28;20255;-55
2022/04/10 04:31:50;;;;;;;10.23;4.13;;;3.60;99.90;;;;;;5116688;28;20164;-55
2022/04/10 04:34:16;;;;;;;6.88;4.30;;;3.60;99.90;;;;;;5116339;28;20563;-56
2022/04/10 04:36:42;;;;;;;6.05;3.85;;;3.50;99.90;;;;;;5116547;28;20169;-55
2022/04/10 04:39:07;;;;;;;6.68;4.15;;;3.50;99.90;;;;;;5116638;28;20248;-56
2022/04/10 04:41:33;;;;;;;9.50;4.05;;;3.50;99.90;;;;;;5116167;28;20211;-55
2022/04/10 04:43:58;;;;;;;7.22;4.18;;;3.50;99.90;;;;;;5116435;28;20209;-54
2022/04/10 04:46:24;;;;;;;6.93;4.40;;;3.50;99.90;;;;;;5116116;28;20168;-51
2022/04/10 04:48:49;;;;;;;7.90;3.72;;;3.60;99.90;;;;;;5116002;28;20233;-50
2022/04/10 04:51:15;;;;;;;5.80;4.07;;;3.60;99.90;;;;;;5116086;28;20172;-50
2022/04/10 04:53:41;;;;;;;8.23;4.30;;;3.60;99.90;;;;;;5116284;28;20164;-50
2022/04/10 04:56:06;;;;;;;7.22;4.43;;;3.60;99.90;;;;;;5116226;28;20168;-51
2022/04/10 04:58:32;;;;;;;7.05;3.92;;;3.70;99.90;;;;;;5115887;28;20218;-50
2022/04/10 05:00:57;;;;;;;9.50;5.03;;;3.70;99.90;;;;;;5115766;28;20247;-52
2022/04/10 05:03:23;;;;;;;8.27;4.50;;;3.80;99.90;;;;;;5114577;28;20168;-52
2022/04/10 05:05:48;;;;;;;5.60;3.83;;;3.80;99.90;;;;;;5115816;28;20169;-52
2022/04/10 05:08:14;;;;;;;8.55;4.50;;;3.80;99.90;;;;;;5115692;28;20157;-51
2022/04/10 05:10:39;;;;;;;7.20;4.60;;;3.90;99.90;;;;;;5115798;28;20567;-49
2022/04/10 05:13:08;;;;;;;9.57;4.18;;;3.90;99.90;;;;;;5115602;28;20167;-50
2022/04/10 05:15:34;;;;;;;6.05;4.55;;;4.00;99.90;;;;;;5115872;27;20221;-50
2022/04/10 05:18:00;;;;;;;12.60;5.70;;;4.10;99.90;;;;;;5115701;28;20164;-50
2022/04/10 05:20:25;;;;;;;11.88;4.30;;;4.20;99.90;;;;;;5115404;28;20660;-50
2022/04/10 05:22:51;;;;;;;9.75;4.18;;;4.20;99.90;;;;;;5115443;28;20153;-50
2022/04/10 05:25:17;;;;;;;8.88;4.43;;;4.20;99.90;;;;;;5115295;28;20164;-50
2022/04/10 05:27:42;;;;;;;17.65;11.23;;;4.30;99.90;;;;;;5114612;28;20168;-52
2022/04/10 05:30:09;;;;;;;10.35;5.88;;;4.30;99.90;;;;;;5115478;28;20550;-55
2022/04/10 05:32:34;;;;;;;10.25;5.55;;;4.30;99.90;;;;;;5115282;28;20169;-55
2022/04/10 05:35:00;;;;;;;6.63;4.55;;;4.30;99.90;;;;;;5115103;28;20183;-55
2022/04/10 05:37:26;;;;;;;7.97;4.65;;;4.40;99.90;;;;;;5115373;28;20168;-54
2022/04/10 05:39:51;;;;;;;10.43;5.05;;;4.40;99.90;;;;;;5115270;28;20676;-52
2022/04/10 05:42:17;;;;;;;11.95;5.10;;;4.50;99.90;;;;;;5115111;28;20251;-51
2022/04/10 05:44:42;;;;;;;9.07;5.03;;;4.40;99.90;;;;;;5115147;28;20173;-55
2022/04/10 05:47:08;;;;;;;9.23;5.25;;;4.40;99.90;;;;;;5115235;28;20629;-52
2022/04/10 05:49:33;;;;;;;9.07;5.35;;;4.50;99.90;;;;;;5114880;28;20161;-51
2022/04/10 05:51:59;;;;;;;6.25;4.47;;;4.50;99.90;;;;;;5114918;28;20177;-50
2022/04/10 05:54:24;;;;;;;10.35;4.93;;;4.50;99.90;;;;;;5115127;28;20200;-51
2022/04/10 05:56:50;;;;;;;8.25;5.10;;;4.60;99.90;;;;;;5115051;28;20195;-51
2022/04/10 05:59:15;;;;;;;10.05;4.90;;;4.60;99.90;;;;;;5114874;28;20238;-50
2022/04/10 06:01:41;;;;;;;7.28;5.57;;;4.70;99.90;;;;;;5114619;28;20682;-51
2022/04/10 06:04:06;;;;;;;9.23;4.93;;;4.70;99.90;;;;;;5114699;28;20165;-51
2022/04/10 06:06:32;;;;;;;8.30;4.97;;;4.70;99.90;;;;;;5114277;28;20175;-50
2022/04/10 06:08:57;;;;;;;7.80;4.90;;;4.80;99.90;;;;;;5114379;28;20212;-55
2022/04/10 06:11:23;;;;;;;8.85;5.50;;;4.90;99.90;;;;;;5114417;28;20227;-56
2022/04/10 06:13:49;;;;;;;8.52;5.00;;;5.00;99.90;;;;;;5114477;28;20184;-55
2022/04/10 06:16:14;;;;;;;11.18;5.90;;;5.10;99.90;;;;;;5114386;28;20169;-56
2022/04/10 06:18:40;;;;;;;8.57;5.38;;;5.20;99.90;;;;;;5114683;28;20172;-56
2022/04/10 06:21:05;;;;;;;8.02;5.40;;;5.30;99.90;;;;;;5114222;28;20204;-53
2022/04/10 06:23:31;;;;;;;8.55;5.20;;;5.30;99.90;;;;;;5114158;28;20171;-54
2022/04/10 06:25:56;;;;;;;8.10;5.10;;;5.50;99.90;;;;;;5114257;28;20183;-55
2022/04/10 06:28:22;;;;;;;10.43;4.93;;;5.60;99.90;;;;;;5114114;28;20589;-55
2022/04/10 06:30:47;;;;;;;9.80;6.35;;;5.50;99.90;;;;;;5114358;28;20190;-56
2022/04/10 06:33:14;;;;;;;8.43;5.45;;;5.50;99.90;;;;;;5114310;28;20169;-56
2022/04/10 06:35:39;;;;;;;7.47;4.70;;;5.60;99.90;;;;;;5114332;28;20157;-55
2022/04/10 06:38:06;;;;;;;9.80;5.45;;;5.60;99.90;;;;;;5113928;28;20167;-55
2022/04/10 06:40:31;;;;;;;9.98;5.38;;;5.70;99.90;;;;;;5111570;28;20204;-55
2022/04/10 06:42:57;;;;;;;8.70;4.85;;;5.80;99.90;;;;;;5113801;28;20165;-55
2022/04/10 06:45:22;;;;;;;8.00;4.90;;;5.90;99.90;;;;;;5112486;28;20544;-54
2022/04/10 06:47:48;;;;;;;10.30;5.78;;;6.00;99.90;;;;;;5113711;28;20157;-53
2022/04/10 06:50:13;;;;;;;10.02;5.88;;;6.10;99.90;;;;;;5113688;28;20179;-53
2022/04/10 06:52:39;;;;;;;8.85;5.25;;;6.10;99.90;;;;;;5114216;28;20166;-54
2022/04/10 06:55:05;;;;;;;7.55;5.40;;;6.20;99.90;;;;;;5113863;28;20503;-54
2022/04/10 06:57:31;;;;;;;8.35;4.50;;;6.20;99.90;;;;;;5113556;28;20555;-52
2022/04/10 06:59:57;;;;;;;10.70;6.03;;;6.30;99.90;;;;;;5113296;28;20250;-55
2022/04/10 07:02:22;;;;;;;8.23;4.90;;;6.40;99.90;;;;;;5113263;28;20171;-54
2022/04/10 07:04:48;;;;;;;11.10;5.47;;;6.40;99.90;;;;;;5113315;28;20553;-51
2022/04/10 07:07:13;;;;;;;12.88;5.75;;;6.50;99.90;;;;;;5113242;28;20209;-54
2022/04/10 07:09:39;;;;;;;12.85;6.03;;;6.60;99.90;;;;;;5113463;28;20231;-53
2022/04/10 07:12:04;;;;;;;8.80;5.75;;;6.70;99.90;;;;;;5113468;28;20649;-55
2022/04/10 07:14:30;;;;;;;7.65;5.60;;;6.80;99.90;;;;;;5113186;28;20273;-54
2022/04/10 07:16:55;;;;;;;8.32;5.40;;;6.90;99.90;;;;;;5113440;28;20165;-55
2022/04/10 07:19:21;;;;;;;9.02;6.03;;;6.90;99.90;;;;;;5113216;28;20241;-56
2022/04/10 07:24:30;;;;;;;13.40;6.07;;;7.10;99.90;;;;;;5113095;28;20168;-54
2022/04/10 07:26:56;;;;;;;9.05;5.65;;;7.20;99.90;;;;;;5112953;28;20173;-56
2022/04/10 07:29:22;;;;;;;10.90;6.75;;;7.30;99.90;;;;;;5112981;28;20172;-56
2022/04/10 07:31:47;;;;;;;8.90;6.00;;;7.30;99.90;;;;;;5113227;28;20176;-54
2022/04/10 07:34:13;;;;;;;9.75;5.65;;;7.50;99.90;;;;;;5112933;28;20168;-54
2022/04/10 07:36:39;;;;;;;10.45;6.10;;;7.50;99.90;;;;;;5113223;28;20247;-56
2022/04/10 07:39:04;;;;;;;16.02;6.50;;;7.70;99.90;;;;;;5113021;28;20218;-56
2022/04/10 07:41:30;;;;;;;9.07;5.88;;;7.60;99.90;;;;;;5112714;28;20161;-51
2022/04/10 07:43:56;;;;;;;7.88;5.60;;;7.70;99.90;;;;;;5112650;28;20168;-56
2022/04/10 07:49:06;;;;;;;8.45;6.13;;;7.70;99.90;;;;;;5112649;28;20179;-56
2022/04/10 07:51:32;;;;;;;12.65;6.75;;;7.60;99.90;;;;;;5112322;27;20632;-55
2022/04/10 07:53:58;;;;;;;8.80;6.25;;;7.40;99.90;;;;;;5112949;28;20191;-55
2022/04/10 07:56:24;;;;;;;9.10;5.75;;;7.60;99.90;;;;;;5112586;28;20621;-55
2022/04/10 07:58:49;;;;;;;9.98;6.10;;;7.40;99.90;;;;;;5112595;28;20164;-53
2022/04/10 08:01:15;;;;;;;15.05;5.63;;;7.40;99.90;;;;;;5112341;28;20200;-56
2022/04/10 08:03:41;;;;;;;8.35;5.53;;;7.30;99.90;;;;;;5112842;28;20656;-54
2022/04/10 08:06:06;;;;;;;15.95;5.75;;;7.20;99.90;;;;;;5112764;28;20173;-55
2022/04/10 08:08:32;;;;;;;10.23;6.05;;;7.20;99.90;;;;;;5112620;28;20196;-51
2022/04/10 08:10:57;;;;;;;9.23;5.03;;;7.20;99.90;;;;;;5112189;28;20639;-51
2022/04/10 08:13:24;;;;;;;8.60;5.55;;;7.30;99.90;;;;;;5112587;28;20202;-56
2022/04/10 08:15:49;;;;;;;8.57;5.07;;;7.30;99.90;;;;;;5112484;28;20240;-56
2022/04/10 08:18:15;;;;;;;12.50;5.47;;;7.40;99.90;;;;;;5112472;28;20214;-56
2022/04/10 08:20:41;;;;;;;8.02;4.53;;;7.50;99.90;;;;;;5112384;28;20731;-50
2022/04/10 08:23:08;;;;;;;8.10;5.45;;;7.60;99.90;;;;;;5112713;28;20182;-56
2022/04/10 08:25:34;;;;;;;8.20;5.20;;;7.60;99.90;;;;;;5112305;28;20521;-56
2022/04/10 08:28:00;;;;;;;10.18;4.95;;;7.60;99.90;;;;;;5112250;28;20176;-56
2022/04/10 08:30:27;;;;;;;10.88;4.75;;;7.70;99.90;;;;;;5112557;28;20200;-57
2022/04/10 08:32:52;;;;;;;8.13;4.35;;;7.70;99.90;;;;;;5112508;28;20160;-56
2022/04/10 08:35:18;;;;;;;8.05;4.90;;;7.70;99.90;;;;;;5112369;28;20176;-57
2022/04/10 08:37:44;;;;;;;12.10;4.47;;;7.80;99.90;;;;;;5112250;28;20186;-55
2022/04/10 08:40:10;;;;;;;4.30;3.25;;;7.90;99.90;;;;;;5112350;28;20208;-57
2022/04/10 08:42:36;;;;;;;10.23;3.72;;;7.90;99.90;;;;;;5112736;28;20306;-56
2022/04/10 08:45:03;;;;;;;7.32;3.83;;;7.80;99.90;;;;;;5112107;28;20629;-56
2022/04/10 08:47:30;;;;;;;10.30;4.50;;;8.00;99.90;;;;;;5112416;28;20265;-57
2022/04/10 08:49:56;;;;;;;7.47;3.70;;;8.20;99.90;;;;;;5112380;28;20169;-56
2022/04/10 08:52:22;;;;;;;8.13;3.97;;;8.50;99.90;;;;;;5112113;28;20157;-57
2022/04/10 08:54:49;;;;;;;8.77;3.33;;;9.00;99.90;;;;;;5112026;28;20244;-56
2022/04/10 08:57:15;;;;;;;5.85;3.33;;;9.30;99.90;;;;;;5112069;28;20168;-56
2022/04/10 08:59:41;;;;;;;9.32;3.30;;;8.90;99.90;;;;;;5112254;28;20254;-56
2022/04/10 09:02:08;;;;;;;10.15;3.42;;;8.80;99.90;;;;;;5112498;28;20165;-55
2022/04/10 09:04:34;;;;;;;6.13;3.00;;;8.70;99.90;;;;;;5115801;28;20173;-56
2022/04/10 09:07:03;;;;;;;6.25;2.75;;;8.80;99.90;;;;;;5115967;28;20175;-55
2022/04/10 09:09:30;;;;;;;5.53;3.30;;;8.80;99.90;;;;;;5115597;28;20223;-56
2022/04/10 09:11:57;;;;;;;7.47;3.55;;;8.70;99.90;;;;;;5115852;28;20175;-56
2022/04/10 09:14:37;;;;;;;6.28;3.60;;;8.80;99.90;;;;;;5115608;28;20198;-57
2022/04/10 09:17:21;;;;;;;6.30;3.80;;;9.40;99.90;;;;;;5115541;28;20165;-54
2022/04/10 09:19:51;;;;;;;5.40;2.47;;;9.70;99.90;;;;;;5115724;28;20207;-56
2022/04/10 09:22:33;;;;;;;7.90;2.45;;;9.50;99.90;;;;;;5115499;28;20648;-56
2022/04/10 09:25:11;;;;;;;8.13;3.17;;;9.20;99.90;;;;;;5115380;28;20673;-57
2022/04/10 09:27:47;;;;;;;8.55;3.33;;;9.00;99.90;;;;;;5115771;28;20165;-57
2022/04/10 09:30:15;;;;;;;9.43;5.03;;;9.00;99.90;;;;;;5115001;28;20164;-56
2022/04/10 09:32:47;;;;;;;8.98;4.90;;;8.90;99.90;;;;;;5115621;28;20168;-55
2022/04/10 09:35:15;;;;;;;6.20;3.75;;;9.00;99.90;;;;;;5115439;28;20221;-56
2022/04/10 09:37:53;;;;;;;11.43;4.15;;;8.90;99.90;;;;;;5115503;28;20519;-56
2022/04/10 09:40:30;;;;;;;4.65;3.10;;;9.10;99.90;;;;;;5115008;28;20204;-57
2022/04/10 09:43:04;;;;;;;7.05;3.65;;;9.60;99.90;;;;;;5115134;28;20571;-54
2022/04/10 09:45:43;;;;;;;7.28;3.38;;;9.80;99.90;;;;;;5115147;28;20594;-56
2022/04/10 09:48:29;;;;;;;8.93;3.80;;;9.50;99.90;;;;;;5115230;28;20194;-56
2022/04/10 09:51:02;;;;;;;6.13;3.50;;;9.40;99.90;;;;;;5115143;28;20192;-50
2022/04/10 09:53:29;;;;;;;6.78;3.20;;;9.20;99.90;;;;;;5115006;28;20180;-55
2022/04/10 09:56:02;;;;;;;5.75;2.70;;;9.60;99.90;;;;;;5114794;28;20178;-56
2022/04/10 09:58:28;;;;;;;7.40;3.20;;;9.60;99.90;;;;;;5115046;28;20531;-56
2022/04/10 10:13:46;;;;;;;5.07;2.65;;;9.80;99.90;;;;;;5130211;27;20294;-55
2022/04/10 10:16:12;;;;;;;6.28;2.15;;;9.30;99.90;;;;;;5109760;28;20534;-55
2022/04/10 10:18:40;;;;;;;3.40;2.25;;;9.10;99.90;;;;;;5109919;28;20168;-55
2022/04/10 10:21:09;;;;;;;4.95;2.35;;;9.00;99.90;;;;;;5109824;28;20218;-56
2022/04/10 10:23:36;;;;;;;5.97;2.60;;;8.90;99.90;;;;;;5109817;28;20173;-56
2022/04/10 10:26:17;;;;;;;7.38;2.80;;;8.80;99.90;;;;;;5109786;28;20172;-55
2022/04/10 10:29:01;;;;;;;7.25;2.97;;;8.90;99.90;;;;;;5109395;28;20252;-55
2022/04/10 10:31:51;;;;;;;4.65;2.63;;;9.20;99.90;;;;;;5109575;28;20180;-49
2022/04/10 10:34:21;;;;;;;4.40;2.20;;;9.50;99.90;;;;;;5109120;28;20169;-54
2022/04/10 10:36:47;;;;;;;4.95;2.08;;;9.70;99.90;;;;;;5109583;28;20252;-56
2022/04/10 10:39:12;;;;;;;4.93;2.35;;;10.00;99.90;;;;;;5109310;28;20196;-55
2022/04/10 10:41:38;;;;;;;4.60;2.10;;;10.10;99.90;;;;;;5109140;28;20204;-54
2022/04/10 10:44:40;;;;;;;5.93;2.38;;;10.00;99.90;;;;;;5109224;28;20583;-55
2022/04/10 10:47:14;;;;;;;3.85;2.33;;;10.00;99.90;;;;;;5109274;28;20164;-55
2022/04/10 10:49:45;;;;;;;2.70;1.88;;;9.90;99.90;;;;;;5109158;28;20259;-55
2022/04/10 10:52:11;;;;;;;5.53;2.13;;;10.00;99.90;;;;;;5108880;28;20547;-53
2022/04/10 10:54:44;;;;;;;4.13;2.60;;;10.10;99.90;;;;;;5109013;28;20251;-52
2022/04/10 10:57:22;;;;;;;3.53;2.20;;;10.00;99.90;;;;;;5108709;28;20685;-53
2022/04/10 11:00:11;;;;;;;6.22;2.20;;;10.30;99.90;;;;;;5108764;28;20175;-53
2022/04/10 11:02:38;;;;;;;7.25;2.80;;;10.50;99.90;;;;;;5108986;28;20208;-55
2022/04/10 11:05:08;;;;;;;2.55;1.90;;;10.60;99.90;;;;;;5108865;28;20218;-55
2022/04/10 11:07:39;;;;;;;4.80;1.92;;;10.70;99.90;;;;;;5108926;28;20578;-55
2022/04/10 11:10:11;;;;;;;6.18;1.85;;;10.60;99.90;;;;;;5108926;28;20244;-55
2022/04/10 11:12:52;;;;;;;5.88;2.05;;;10.70;99.90;;;;;;5106675;28;20629;-55
2022/04/10 11:15:18;;;;;;;3.63;1.48;;;11.10;99.90;;;;;;5094892;28;20648;-55
2022/04/10 11:17:45;;;;;;;4.20;2.25;;;11.00;99.90;;;;;;5076725;28;20188;-53
2022/04/10 11:20:12;;;;;;;3.10;1.75;;;11.20;99.90;;;;;;5094990;28;20622;-54
2022/04/10 11:23:04;;;;;;;4.07;1.85;;;11.60;99.90;;;;;;5094985;28;20231;-55
2022/04/10 11:25:34;;;;;;;5.47;1.95;;;11.70;99.90;;;;;;5094716;28;20177;-54
2022/04/10 11:28:03;;;;;;;4.13;1.90;;;11.70;99.90;;;;;;5094769;28;20207;-55
2022/04/10 11:30:36;;;;;;;4.80;1.88;;;11.40;99.90;;;;;;5094640;28;20238;-55
2022/04/10 11:33:04;;;;;;;3.63;1.80;;;11.60;99.90;;;;;;5094755;28;20208;-55
2022/04/10 11:35:38;;;;;;;4.57;2.10;;;11.50;99.90;;;;;;5094502;28;20170;-53
2022/04/10 11:38:07;;;;;;;2.70;1.50;;;11.70;99.90;;;;;;5076017;28;20215;-55
2022/04/10 11:40:35;;;;;;;4.13;2.00;;;11.80;99.90;;;;;;5094429;28;20165;-55
2022/04/10 11:43:02;;;;;;;3.80;1.77;;;11.80;99.90;;;;;;5094579;28;20209;-54
2022/04/10 11:45:30;;;;;;;5.07;2.50;;;11.90;99.90;;;;;;5094396;28;20157;-55
2022/04/10 11:47:56;;;;;;;3.53;2.08;;;11.90;99.90;;;;;;5094804;28;20169;-55
2022/04/10 11:50:25;;;;;;;6.13;2.22;;;12.00;99.90;;;;;;5094904;28;20569;-52
2022/04/10 11:53:03;;;;;;;6.50;2.30;;;12.10;99.90;;;;;;5094234;28;20173;-56
2022/04/10 11:55:36;;;;;;;5.38;2.13;;;12.30;99.90;;;;;;5094121;28;20644;-55
2022/04/10 11:58:18;;;;;;;6.68;2.10;;;12.50;99.90;;;;;;5094530;28;20201;-54
2022/04/10 12:00:53;;;;;;;4.03;2.00;;;12.70;99.90;;;;;;5094243;28;20172;-56
2022/04/10 12:03:26;;;;;;;4.18;1.98;;;12.10;99.90;;;;;;5094136;28;20181;-55
2022/04/10 12:05:53;;;;;;;3.92;2.35;;;12.00;99.90;;;;;;5094395;28;20164;-54
2022/04/10 12:08:20;;;;;;;7.30;2.70;;;12.00;99.90;;;;;;5093954;28;20161;-54
2022/04/10 12:11:06;;;;;;;2.83;1.92;;;12.20;99.90;;;;;;5094225;28;20173;-54
2022/04/10 12:13:39;;;;;;;2.90;2.08;;;12.10;99.90;;;;;;5093246;28;20213;-55
2022/04/10 12:16:13;;;;;;;3.90;1.90;;;12.40;99.90;;;;;;5093939;28;20169;-52
2022/04/10 12:18:55;;;;;;;7.07;2.45;;;12.30;99.90;;;;;;5094015;28;20221;-54
2022/04/10 12:21:23;;;;;;;3.60;2.00;;;12.00;99.90;;;;;;5093951;28;20239;-55
2022/04/10 12:23:59;;;;;;;4.28;1.92;;;12.50;99.90;;;;;;5093677;28;20245;-51
2022/04/10 12:26:26;;;;;;;7.20;2.45;;;12.60;99.90;;;;;;5093010;28;20191;-55
2022/04/10 12:28:51;;;;;;;4.78;2.28;;;12.10;99.90;;;;;;5093480;28;20516;-52
2022/04/10 12:31:19;;;;;;;5.75;2.20;;;11.70;99.90;;;;;;5093221;28;20211;-55
2022/04/10 12:33:46;;;;;;;4.00;2.17;;;11.70;99.90;;;;;;5093502;28;20716;-52
2022/04/10 12:36:30;;;;;;;4.03;2.38;;;12.20;99.90;;;;;;5093757;28;20205;-54
2022/04/10 12:38:56;;;;;;;5.95;2.38;;;12.50;99.90;;;;;;5093781;28;20161;-53
2022/04/10 12:41:29;;;;;;;4.35;1.92;;;12.20;99.90;;;;;;5093576;28;20209;-54
2022/04/10 12:44:04;;;;;;;3.72;2.45;;;12.50;99.90;;;;;;5093842;28;20200;-51
2022/04/10 12:46:38;;;;;;;3.17;2.13;;;13.10;99.90;;;;;;5093157;28;20204;-52
2022/04/10 12:49:17;;;;;;;4.15;2.35;;;12.70;99.90;;;;;;5093392;28;20177;-56
2022/04/10 12:51:49;;;;;;;3.75;2.00;;;13.00;99.90;;;;;;5093157;28;20169;-55
2022/04/10 12:54:15;;;;;;;3.47;1.88;;;12.20;97.60;;;;;;5093097;28;20242;-56
2022/04/10 12:56:41;;;;;;;3.95;2.13;;;12.00;98.80;;;;;;5092755;28;20279;-49
2022/04/10 12:59:06;;;;;;;5.50;2.45;;;11.80;99.90;;;;;;5092973;28;20166;-50
2022/04/10 13:01:33;;;;;;;4.35;2.13;;;11.50;98.20;;;;;;5092721;28;20673;-52
2022/04/10 13:04:01;;;;;;;3.58;2.22;;;11.40;99.80;;;;;;5093039;28;20252;-52
2022/04/10 13:06:49;;;;;;;4.45;2.13;;;11.40;99.90;;;;;;5092933;28;20537;-49
2022/04/10 13:09:15;;;;;;;3.90;2.00;;;11.20;99.90;;;;;;5092800;28;20512;-50
2022/04/10 13:11:41;;;;;;;5.35;2.20;;;11.10;99.90;;;;;;5092922;28;20213;-52
2022/04/10 13:14:08;;;;;;;2.95;1.60;;;11.10;99.50;;;;;;5093029;28;20197;-54